createdAt,value
2018-08-28T00:01:24.399Z,16.90
2018-08-28T00:03:54.234Z,16.90
2018-08-28T00:06:23.514Z,16.90
2018-08-28T00:08:52.770Z,16.90
2018-08-28T00:11:23.156Z,16.90
2018-08-28T00:13:52.825Z,16.90
2018-08-28T00:16:22.036Z,16.90
2018-08-28T00:18:51.145Z,16.90
2018-08-28T00:21:23.720Z,16.90
2018-08-28T00:23:53.111Z,16.90
2018-08-28T00:26:22.256Z,16.80
2018-08-28T00:28:51.448Z,16.90
2018-08-28T00:31:22.969Z,16.90
2018-08-28T00:33:52.064Z,16.90
2018-08-28T00:36:21.096Z,16.90
2018-08-28T00:38:50.261Z,16.90
2018-08-28T00:41:19.661Z,16.90
2018-08-28T00:43:49.266Z,16.90
2018-08-28T00:46:19.715Z,16.90
2018-08-28T00:48:48.903Z,16.90
2018-08-28T00:51:18.098Z,16.80
2018-08-28T00:53:47.315Z,16.80
2018-08-28T00:56:17.880Z,16.80
2018-08-28T00:58:47.071Z,16.80
2018-08-28T01:01:16.295Z,16.80
2018-08-28T01:03:45.805Z,16.80
2018-08-28T01:06:15.020Z,16.80
2018-08-28T01:08:45.211Z,16.80
2018-08-28T01:11:15.648Z,16.80
2018-08-28T01:13:44.738Z,16.80
2018-08-28T01:16:14.004Z,16.80
2018-08-28T01:18:43.258Z,16.80
2018-08-28T01:21:12.786Z,16.80
2018-08-28T01:23:41.934Z,16.80
2018-08-28T01:26:11.617Z,16.80
2018-08-28T01:28:40.801Z,16.80
2018-08-28T01:31:09.927Z,16.80
2018-08-28T01:33:38.978Z,16.80
2018-08-28T01:36:08.443Z,16.80
2018-08-28T01:38:37.604Z,16.80
2018-08-28T01:41:06.876Z,16.80
2018-08-28T01:43:35.874Z,16.70
2018-08-28T01:46:06.704Z,16.70
2018-08-28T01:48:36.013Z,16.70
2018-08-28T01:51:05.333Z,16.70
2018-08-28T01:53:34.484Z,16.70
2018-08-28T01:56:04.440Z,16.70
2018-08-28T01:58:33.484Z,16.70
2018-08-28T02:01:02.605Z,16.60
2018-08-28T02:03:31.751Z,16.60
2018-08-28T02:06:01.025Z,16.60
2018-08-28T02:08:30.294Z,16.60
2018-08-28T02:11:04.473Z,16.60
2018-08-28T02:13:33.564Z,16.60
2018-08-28T02:16:03.009Z,16.60
2018-08-28T02:18:32.053Z,16.60
2018-08-28T02:21:01.079Z,16.60
2018-08-28T02:23:30.145Z,16.60
2018-08-28T02:25:59.453Z,16.60
2018-08-28T02:28:29.149Z,16.60
2018-08-28T02:30:58.211Z,16.60
2018-08-28T02:33:27.595Z,16.50
2018-08-28T02:35:57.033Z,16.50
2018-08-28T02:38:26.064Z,16.50
2018-08-28T02:40:55.248Z,16.50
2018-08-28T02:43:24.363Z,16.50
2018-08-28T02:45:58.794Z,16.50
2018-08-28T02:48:27.919Z,16.50
2018-08-28T02:50:57.038Z,16.50
2018-08-28T02:53:26.549Z,16.50
2018-08-28T02:56:00.594Z,16.50
2018-08-28T02:58:29.805Z,16.50
2018-08-28T03:00:58.876Z,16.50
2018-08-28T03:03:27.949Z,16.50
2018-08-28T03:05:57.474Z,16.50
2018-08-28T03:08:26.564Z,16.50
2018-08-28T03:10:55.723Z,16.50
2018-08-28T03:13:24.860Z,16.40
2018-08-28T03:15:55.195Z,16.40
2018-08-28T03:18:24.320Z,16.40
2018-08-28T03:20:53.425Z,16.40
2018-08-28T03:23:22.439Z,16.40
2018-08-28T03:25:51.494Z,16.40
2018-08-28T03:28:21.272Z,16.40
2018-08-28T03:30:50.406Z,16.40
2018-08-28T03:33:19.470Z,16.40
2018-08-28T03:35:48.549Z,16.40
2018-08-28T03:38:21.413Z,16.40
2018-08-28T03:40:50.455Z,16.40
2018-08-28T03:43:20.973Z,16.40
2018-08-28T03:45:50.045Z,16.40
2018-08-28T03:48:19.114Z,16.40
2018-08-28T03:50:48.152Z,16.30
2018-08-28T03:53:20.323Z,16.30
2018-08-28T03:55:49.462Z,16.30
2018-08-28T03:58:18.786Z,16.30
2018-08-28T04:00:48.005Z,16.30
2018-08-28T04:03:18.455Z,16.40
2018-08-28T04:05:47.566Z,16.40
2018-08-28T04:08:16.594Z,16.40
2018-08-28T04:10:45.709Z,16.40
2018-08-28T04:13:18.714Z,16.30
2018-08-28T04:15:47.927Z,16.30
2018-08-28T04:18:17.132Z,16.30
2018-08-28T04:20:46.215Z,16.40
2018-08-28T04:23:15.700Z,16.40
2018-08-28T04:25:44.852Z,16.40
2018-08-28T04:28:14.115Z,16.40
2018-08-28T04:30:43.172Z,16.30
2018-08-28T04:33:13.793Z,16.30
2018-08-28T04:35:43.103Z,16.30
2018-08-28T04:38:12.263Z,16.30
2018-08-28T04:40:41.281Z,16.30
2018-08-28T04:43:10.389Z,16.40
2018-08-28T04:45:39.488Z,16.40
2018-08-28T04:48:08.970Z,16.30
2018-08-28T04:50:40.544Z,16.40
2018-08-28T04:53:09.728Z,16.40
2018-08-28T04:55:49.598Z,16.40
2018-08-28T04:58:18.604Z,16.40
2018-08-28T05:00:47.756Z,16.40
2018-08-28T05:03:16.890Z,16.40
2018-08-28T05:05:47.480Z,16.40
2018-08-28T05:08:16.589Z,16.40
2018-08-28T05:10:45.681Z,16.40
2018-08-28T05:13:14.730Z,16.40
2018-08-28T05:15:46.188Z,16.50
2018-08-28T05:18:15.373Z,16.50
2018-08-28T05:20:44.787Z,16.50
2018-08-28T05:23:13.998Z,16.50
2018-08-28T05:25:44.374Z,16.50
2018-08-28T05:28:13.700Z,16.60
2018-08-28T05:30:42.979Z,16.60
2018-08-28T05:33:12.213Z,16.60
2018-08-28T05:35:41.700Z,16.60
2018-08-28T05:38:11.116Z,16.70
2018-08-28T05:40:40.340Z,16.70
2018-08-28T05:43:09.366Z,16.70
2018-08-28T05:45:38.448Z,16.70
2018-08-28T05:48:09.189Z,16.80
2018-08-28T05:50:38.334Z,16.80
2018-08-28T05:53:07.391Z,16.80
2018-08-28T05:55:36.641Z,16.80
2018-08-28T05:58:06.865Z,16.80
2018-08-28T06:00:35.968Z,16.90
2018-08-28T06:03:09.506Z,16.90
2018-08-28T06:05:40.066Z,16.90
2018-08-28T06:08:10.152Z,17.00
2018-08-28T06:10:39.575Z,17.00
2018-08-28T06:13:08.804Z,17.10
2018-08-28T06:15:38.163Z,17.00
2018-08-28T06:18:07.420Z,17.10
2018-08-28T06:20:36.604Z,17.10
2018-08-28T06:23:07.495Z,17.20
2018-08-28T06:25:37.039Z,17.20
2018-08-28T06:28:06.668Z,17.30
2018-08-28T06:30:35.888Z,17.30
2018-08-28T06:33:05.366Z,17.40
2018-08-28T06:35:34.773Z,17.40
2018-08-28T06:38:03.926Z,17.40
2018-08-28T06:40:33.179Z,17.40
2018-08-28T06:43:02.353Z,17.50
2018-08-28T06:45:31.531Z,17.50
2018-08-28T06:48:00.709Z,17.60
2018-08-28T06:50:32.563Z,17.60
2018-08-28T06:53:01.791Z,17.70
2018-08-28T06:55:31.994Z,17.70
2018-08-28T06:58:01.307Z,17.80
2018-08-28T07:00:30.835Z,17.80
2018-08-28T07:02:59.938Z,17.90
2018-08-28T07:05:31.393Z,17.90
2018-08-28T07:08:02.279Z,17.90
2018-08-28T07:10:31.751Z,18.00
2018-08-28T07:13:01.089Z,18.10
2018-08-28T07:15:32.569Z,18.10
2018-08-28T07:18:01.817Z,18.20
2018-08-28T07:20:31.866Z,18.20
2018-08-28T07:23:01.427Z,18.20
2018-08-28T07:25:30.914Z,18.30
2018-08-28T07:28:03.612Z,18.40
2018-08-28T07:30:32.878Z,18.40
2018-08-28T07:33:02.936Z,18.50
2018-08-28T07:35:33.566Z,18.60
2018-08-28T07:38:07.432Z,18.60
2018-08-28T07:40:38.139Z,18.70
2018-08-28T07:43:09.415Z,18.80
2018-08-28T07:45:39.790Z,18.80
2018-08-28T07:48:09.329Z,18.80
2018-08-28T07:50:38.496Z,18.80
2018-08-28T07:53:07.945Z,18.80
2018-08-28T07:55:39.128Z,18.80
2018-08-28T07:58:10.367Z,18.90
2018-08-28T08:00:39.769Z,19.00
2018-08-28T08:03:09.490Z,19.10
2018-08-28T08:05:39.649Z,19.20
2018-08-28T08:08:09.745Z,19.30
2018-08-28T08:10:38.924Z,19.40
2018-08-28T08:13:08.275Z,19.40
2018-08-28T08:15:37.481Z,19.50
2018-08-28T08:18:06.887Z,19.70
2018-08-28T08:20:36.011Z,19.70
2018-08-28T08:23:05.388Z,19.80
2018-08-28T08:25:34.760Z,19.80
2018-08-28T08:28:05.776Z,19.90
2018-08-28T08:30:36.428Z,20.00
2018-08-28T08:33:06.432Z,20.10
2018-08-28T08:35:37.456Z,20.30
2018-08-28T08:38:07.399Z,20.40
2018-08-28T08:40:38.654Z,20.60
2018-08-28T08:43:10.778Z,20.50
2018-08-28T08:45:41.149Z,20.40
2018-08-28T08:48:10.538Z,20.40
2018-08-28T08:50:39.935Z,20.60
2018-08-28T08:53:10.247Z,20.80
2018-08-28T08:55:39.526Z,21.00
2018-08-28T08:58:10.450Z,21.10
2018-08-28T09:00:40.044Z,21.20
2018-08-28T09:03:09.700Z,21.40
2018-08-28T09:05:41.471Z,21.50
2018-08-28T09:08:11.026Z,21.60
2018-08-28T09:10:42.386Z,21.60
2018-08-28T09:13:11.855Z,21.70
2018-08-28T09:15:42.094Z,21.70
2018-08-28T09:18:11.364Z,21.80
2018-08-28T09:20:44.415Z,21.80
2018-08-28T09:23:15.993Z,21.90
2018-08-28T09:25:49.192Z,22.00
2018-08-28T09:28:19.269Z,22.10
2018-08-28T09:30:49.705Z,22.00
2018-08-28T09:33:19.192Z,22.00
2018-08-28T09:35:48.682Z,21.80
2018-08-28T09:38:18.550Z,21.80
2018-08-28T09:40:48.678Z,21.70
2018-08-28T09:43:26.755Z,21.70
2018-08-28T09:45:57.113Z,21.60
2018-08-28T09:48:26.305Z,21.60
2018-08-28T09:50:55.703Z,21.60
2018-08-28T09:53:26.357Z,21.50
2018-08-28T09:55:55.640Z,21.50
2018-08-28T09:58:25.134Z,21.50
2018-08-28T10:01:01.994Z,21.60
2018-08-28T10:03:31.559Z,21.70
2018-08-28T10:06:01.279Z,21.70
2018-08-28T10:08:37.818Z,21.70
2018-08-28T10:11:07.929Z,21.70
2018-08-28T10:13:37.723Z,21.80
2018-08-28T10:16:07.294Z,21.80
2018-08-28T10:18:39.477Z,21.70
2018-08-28T10:21:09.870Z,21.80
2018-08-28T10:23:39.414Z,21.80
2018-08-28T10:26:13.359Z,21.90
2018-08-28T10:28:43.527Z,21.90
2018-08-28T10:31:14.576Z,21.80
2018-08-28T10:33:43.765Z,21.80
2018-08-28T10:36:14.199Z,21.80
2018-08-28T10:38:45.250Z,21.70
2018-08-28T10:41:14.618Z,21.80
2018-08-28T10:43:50.726Z,21.80
2018-08-28T10:46:24.422Z,21.80
2018-08-28T10:49:00.279Z,21.70
2018-08-28T10:51:31.127Z,21.80
2018-08-28T10:54:03.978Z,21.70
2018-08-28T10:56:34.997Z,21.80
2018-08-28T10:59:04.385Z,21.90
2018-08-28T11:01:35.411Z,22.10
2018-08-28T11:04:06.907Z,22.40
2018-08-28T11:06:39.468Z,22.60
2018-08-28T11:09:09.320Z,22.70
2018-08-28T11:11:43.338Z,22.70
2018-08-28T11:14:12.758Z,22.80
2018-08-28T11:16:41.962Z,23.00
2018-08-28T11:19:13.230Z,23.20
2018-08-28T11:21:42.424Z,23.00
2018-08-28T11:24:13.367Z,22.90
2018-08-28T11:26:43.230Z,23.00
2018-08-28T11:29:15.949Z,23.10
2018-08-28T11:31:45.418Z,23.10
2018-08-28T11:34:14.748Z,23.00
2018-08-28T11:36:44.952Z,23.00
2018-08-28T11:39:15.126Z,23.10
2018-08-28T11:41:51.265Z,23.20
2018-08-28T11:44:23.131Z,23.30
2018-08-28T11:46:55.919Z,23.20
2018-08-28T11:49:27.563Z,23.20
2018-08-28T11:52:01.558Z,23.20
2018-08-28T11:54:33.814Z,23.00
2018-08-28T11:57:05.122Z,23.20
2018-08-28T11:59:38.728Z,23.40
2018-08-28T12:02:19.139Z,23.30
2018-08-28T12:04:48.541Z,23.40
2018-08-28T12:07:18.406Z,23.50
2018-08-28T12:09:47.555Z,23.60
2018-08-28T12:12:17.535Z,23.70
2018-08-28T12:14:47.142Z,23.80
2018-08-28T12:17:17.965Z,23.90
2018-08-28T12:19:56.705Z,23.90
2018-08-28T12:22:28.385Z,23.80
2018-08-28T12:24:57.833Z,23.80
2018-08-28T12:27:27.356Z,23.60
2018-08-28T12:29:56.909Z,23.70
2018-08-28T12:32:26.964Z,23.70
2018-08-28T12:34:56.585Z,23.80
2018-08-28T12:37:27.890Z,23.70
2018-08-28T12:40:00.033Z,23.60
2018-08-28T12:42:39.722Z,23.50
2018-08-28T12:45:09.860Z,23.30
2018-08-28T12:47:39.680Z,23.30
2018-08-28T12:50:11.642Z,23.30
2018-08-28T12:52:42.930Z,23.40
2018-08-28T12:55:14.117Z,23.60
2018-08-28T12:57:43.373Z,23.60
2018-08-28T13:00:12.679Z,23.70
2018-08-28T13:02:41.997Z,23.80
2018-08-28T13:05:12.436Z,23.90
2018-08-28T13:07:42.083Z,23.80
2018-08-28T13:10:12.658Z,23.70
2018-08-28T13:12:43.924Z,23.60
2018-08-28T13:15:16.561Z,23.70
2018-08-28T13:17:48.754Z,23.70
2018-08-28T13:20:18.246Z,23.70
2018-08-28T13:22:47.773Z,23.60
2018-08-28T13:25:17.118Z,23.60
2018-08-28T13:27:47.607Z,23.70
2018-08-28T13:30:18.573Z,23.70
2018-08-28T13:32:49.756Z,23.70
2018-08-28T13:35:19.363Z,23.60
2018-08-28T13:37:57.128Z,23.40
2018-08-28T13:40:28.197Z,23.30
2018-08-28T13:42:58.164Z,23.20
2018-08-28T13:45:27.988Z,23.20
2018-08-28T13:47:57.713Z,23.20
2018-08-28T13:50:27.961Z,23.20
2018-08-28T13:53:00.329Z,23.20
2018-08-28T13:55:32.040Z,23.20
2018-08-28T13:58:02.859Z,23.20
2018-08-28T14:00:37.602Z,23.20
2018-08-28T14:03:16.989Z,23.20
2018-08-28T14:05:50.303Z,23.20
2018-08-28T14:08:20.232Z,23.20
2018-08-28T14:10:50.187Z,23.20
2018-08-28T14:13:20.024Z,23.20
2018-08-28T14:15:50.397Z,23.20
2018-08-28T14:18:20.168Z,23.30
2018-08-28T14:20:49.757Z,23.30
2018-08-28T14:23:19.002Z,23.30
2018-08-28T14:25:49.136Z,23.30
2018-08-28T14:28:18.457Z,23.40
2018-08-28T14:30:49.537Z,23.40
2018-08-28T14:33:19.945Z,23.50
2018-08-28T14:35:52.685Z,23.50
2018-08-28T14:38:23.331Z,23.50
2018-08-28T14:40:53.331Z,23.40
2018-08-28T14:43:23.336Z,23.40
2018-08-28T14:45:56.938Z,23.50
2018-08-28T14:48:26.292Z,23.50
2018-08-28T14:50:56.841Z,23.40
2018-08-28T14:53:27.289Z,23.50
2018-08-28T14:55:56.709Z,23.50
2018-08-28T14:58:29.390Z,23.60
2018-08-28T15:01:01.081Z,23.70
2018-08-28T15:03:38.341Z,23.70
2018-08-28T15:06:08.851Z,23.70
2018-08-28T15:08:41.654Z,23.80
2018-08-28T15:11:13.831Z,23.80
2018-08-28T15:13:45.691Z,23.80
2018-08-28T15:16:18.097Z,23.80
2018-08-28T15:18:51.287Z,23.80
2018-08-28T15:21:21.177Z,23.80
2018-08-28T15:23:51.454Z,23.80
2018-08-28T15:26:24.856Z,23.80
2018-08-28T15:28:55.738Z,23.80
2018-08-28T15:31:25.357Z,23.80
2018-08-28T15:33:58.368Z,23.90
2018-08-28T15:36:29.546Z,23.90
2018-08-28T15:38:59.566Z,23.90
2018-08-28T15:41:31.457Z,23.80
2018-08-28T15:44:00.676Z,23.80
2018-08-28T15:46:29.844Z,23.80
2018-08-28T15:48:59.328Z,23.80
2018-08-28T15:51:29.097Z,23.80
2018-08-28T15:53:58.367Z,23.70
2018-08-28T15:56:27.833Z,23.70
2018-08-28T15:58:57.542Z,23.60
2018-08-28T16:01:27.862Z,23.50
2018-08-28T16:03:57.062Z,23.60
2018-08-28T16:06:28.034Z,23.50
2018-08-28T16:08:57.918Z,23.50
2018-08-28T16:11:29.466Z,23.40
2018-08-28T16:14:00.401Z,23.40
2018-08-28T16:16:31.339Z,23.40
2018-08-28T16:19:00.955Z,23.40
2018-08-28T16:21:38.540Z,23.40
2018-08-28T16:24:08.843Z,23.30
2018-08-28T16:26:39.033Z,23.30
2018-08-28T16:29:11.153Z,23.30
2018-08-28T16:31:40.938Z,23.30
2018-08-28T16:34:12.366Z,23.20
2018-08-28T16:36:41.797Z,23.20
2018-08-28T16:39:11.184Z,23.10
2018-08-28T16:41:40.839Z,23.10
2018-08-28T16:44:11.682Z,23.00
2018-08-28T16:46:42.101Z,23.00
2018-08-28T16:49:12.439Z,23.00
2018-08-28T16:51:41.577Z,23.00
2018-08-28T16:54:15.799Z,23.00
2018-08-28T16:56:46.305Z,22.90
2018-08-28T16:59:20.830Z,22.90
2018-08-28T17:01:50.479Z,22.80
2018-08-28T17:04:19.603Z,22.80
2018-08-28T17:06:51.513Z,22.70
2018-08-28T17:09:23.562Z,22.70
2018-08-28T17:11:53.231Z,22.60
2018-08-28T17:14:23.144Z,22.60
2018-08-28T17:16:52.765Z,22.50
2018-08-28T17:19:27.492Z,22.40
2018-08-28T17:21:58.347Z,22.40
2018-08-28T17:24:29.135Z,22.30
2018-08-28T17:26:58.776Z,22.20
2018-08-28T17:29:30.544Z,22.20
2018-08-28T17:32:01.041Z,22.10
2018-08-28T17:34:30.484Z,22.00
2018-08-28T17:37:03.834Z,21.90
2018-08-28T17:39:35.296Z,21.80
2018-08-28T17:42:05.534Z,21.70
2018-08-28T17:44:36.872Z,21.70
2018-08-28T17:47:06.342Z,21.60
2018-08-28T17:49:37.151Z,21.60
2018-08-28T17:52:08.818Z,21.40
2018-08-28T17:54:40.879Z,21.40
2018-08-28T17:57:10.504Z,21.30
2018-08-28T17:59:43.315Z,21.20
2018-08-28T18:02:13.805Z,21.10
2018-08-28T18:04:43.296Z,21.00
2018-08-28T18:07:12.563Z,20.90
2018-08-28T18:09:45.872Z,20.80
2018-08-28T18:12:17.492Z,20.70
2018-08-28T18:14:48.662Z,20.60
2018-08-28T18:17:19.947Z,20.50
2018-08-28T18:19:49.304Z,20.50
2018-08-28T18:22:18.881Z,20.40
2018-08-28T18:24:48.554Z,20.30
2018-08-28T18:27:18.175Z,20.20
2018-08-28T18:29:47.413Z,20.20
2018-08-28T18:32:19.923Z,20.10
2018-08-28T18:34:51.798Z,20.00
2018-08-28T18:37:21.974Z,19.90
2018-08-28T18:39:51.893Z,19.90
2018-08-28T18:42:21.427Z,19.90
2018-08-28T18:44:51.603Z,19.80
2018-08-28T18:47:21.319Z,19.70
2018-08-28T18:49:54.026Z,19.70
2018-08-28T18:52:24.673Z,19.70
2018-08-28T18:54:54.312Z,19.60
2018-08-28T18:57:24.443Z,19.60
2018-08-28T18:59:55.354Z,19.50
2018-08-28T19:02:27.486Z,19.50
2018-08-28T19:04:57.630Z,19.50
2018-08-28T19:07:29.208Z,19.40
2018-08-28T19:10:02.797Z,19.40
2018-08-28T19:12:33.873Z,19.40
2018-08-28T19:15:07.874Z,19.30
2018-08-28T19:17:38.685Z,19.30
2018-08-28T19:20:12.163Z,19.20
2018-08-28T19:22:44.292Z,19.20
2018-08-28T19:25:14.259Z,19.20
2018-08-28T19:27:48.353Z,19.10
2018-08-28T19:30:20.463Z,19.00
2018-08-28T19:32:51.205Z,19.00
2018-08-28T19:35:26.186Z,19.00
2018-08-28T19:37:58.972Z,18.90
2018-08-28T19:40:30.678Z,18.90
2018-08-28T19:43:00.800Z,18.80
2018-08-28T19:45:33.233Z,18.80
2018-08-28T19:48:04.703Z,18.70
2018-08-28T19:50:38.446Z,18.70
2018-08-28T19:53:08.407Z,18.70
2018-08-28T19:55:38.912Z,18.60
2018-08-28T19:58:09.911Z,18.60
2018-08-28T20:00:40.622Z,18.50
2018-08-28T20:03:12.758Z,18.50
2018-08-28T20:05:44.017Z,18.50
2018-08-28T20:08:13.390Z,18.40
2018-08-28T20:10:45.618Z,18.40
2018-08-28T20:13:17.955Z,18.40
2018-08-28T20:15:52.493Z,18.40
2018-08-28T20:18:23.193Z,18.30
2018-08-28T20:20:54.725Z,18.30
2018-08-28T20:23:26.159Z,18.30
2018-08-28T20:26:00.879Z,18.30
2018-08-28T20:28:32.412Z,18.30
2018-08-28T20:31:02.403Z,18.20
2018-08-28T20:33:32.752Z,18.20
2018-08-28T20:36:04.437Z,18.20
2018-08-28T20:38:37.362Z,18.20
2018-08-28T20:41:08.465Z,18.20
2018-08-28T20:43:41.901Z,18.10
2018-08-28T20:46:11.428Z,18.10
2018-08-28T20:48:40.775Z,18.10
2018-08-28T20:51:12.636Z,18.00
2018-08-28T20:53:42.470Z,17.90
2018-08-28T20:56:12.291Z,17.80
2018-08-28T20:58:44.480Z,17.80
2018-08-28T21:01:15.666Z,17.70
2018-08-28T21:03:45.362Z,17.70
2018-08-28T21:06:15.731Z,17.70
2018-08-28T21:08:48.487Z,17.60
2018-08-28T21:11:19.226Z,17.50
2018-08-28T21:13:48.468Z,17.40
2018-08-28T21:16:17.790Z,17.30
2018-08-28T21:18:47.480Z,17.20
2018-08-28T21:21:17.650Z,17.10
2018-08-28T21:23:47.068Z,17.00
2018-08-28T21:26:16.542Z,17.00
2018-08-28T21:28:47.035Z,16.90
2018-08-28T21:31:16.800Z,16.80
2018-08-28T21:33:47.127Z,16.80
2018-08-28T21:36:17.847Z,16.70
2018-08-28T21:38:47.357Z,16.70
2018-08-28T21:41:17.130Z,16.60
2018-08-28T21:43:46.426Z,16.50
2018-08-28T21:46:15.747Z,16.40
2018-08-28T21:48:44.839Z,16.40
2018-08-28T21:51:16.911Z,16.30
2018-08-28T21:53:50.320Z,16.20
2018-08-28T21:56:20.354Z,16.20
2018-08-28T21:58:49.700Z,16.20
2018-08-28T22:01:20.123Z,16.10
2018-08-28T22:03:49.795Z,16.00
2018-08-28T22:06:29.418Z,16.00
2018-08-28T22:08:58.502Z,15.90
2018-08-28T22:11:27.767Z,15.90
2018-08-28T22:13:57.570Z,15.80
2018-08-28T22:16:26.740Z,15.70
2018-08-28T22:18:56.130Z,15.70
2018-08-28T22:21:25.715Z,15.70
2018-08-28T22:23:54.898Z,15.60
2018-08-28T22:26:24.061Z,15.60
2018-08-28T22:28:53.309Z,15.60
2018-08-28T22:31:22.502Z,15.60
2018-08-28T22:33:51.985Z,15.60
2018-08-28T22:36:21.122Z,15.60
2018-08-28T22:38:50.304Z,15.60
2018-08-28T22:41:20.452Z,15.50
2018-08-28T22:43:51.111Z,15.50
2018-08-28T22:46:21.699Z,15.50
2018-08-28T22:48:50.919Z,15.40
2018-08-28T22:51:20.051Z,15.40
2018-08-28T22:53:49.202Z,15.30
2018-08-28T22:56:18.350Z,15.30
2018-08-28T22:58:47.540Z,15.30
2018-08-28T23:01:18.767Z,15.30
2018-08-28T23:03:47.859Z,15.20
2018-08-28T23:06:16.976Z,15.20
2018-08-28T23:08:47.251Z,15.10
2018-08-28T23:11:20.847Z,15.10
2018-08-28T23:13:51.013Z,15.10
2018-08-28T23:16:20.080Z,15.10
2018-08-28T23:18:49.588Z,15.10
2018-08-28T23:21:20.699Z,15.10
2018-08-28T23:23:49.810Z,15.10
2018-08-28T23:26:19.199Z,15.00
2018-08-28T23:28:48.320Z,15.00
2018-08-28T23:31:17.467Z,15.00
2018-08-28T23:33:46.807Z,14.90
2018-08-28T23:36:16.016Z,14.90
2018-08-28T23:38:45.050Z,14.80
2018-08-28T23:41:14.139Z,14.80
2018-08-28T23:43:43.583Z,14.70
2018-08-28T23:46:13.174Z,14.70
2018-08-28T23:48:44.654Z,14.70
2018-08-28T23:51:13.994Z,14.60
2018-08-28T23:53:43.241Z,14.50
2018-08-28T23:56:12.355Z,14.50
2018-08-28T23:58:41.829Z,14.40
